createdAt,value
2023-04-06T00:00:55.270Z,43.46
2023-04-06T00:03:24.480Z,43.20
2023-04-06T00:05:53.981Z,42.96
2023-04-06T00:08:23.850Z,43.04
2023-04-06T00:10:52.767Z,43.04
2023-04-06T00:13:22.112Z,42.83
2023-04-06T00:15:51.017Z,42.90
2023-04-06T00:18:21.103Z,42.87
2023-04-06T00:20:49.844Z,42.56
2023-04-06T00:23:18.767Z,42.38
2023-04-06T00:25:47.521Z,42.10
2023-04-06T00:28:16.538Z,42.25
2023-04-06T00:30:45.540Z,41.92
2023-04-06T00:33:14.366Z,41.96
2023-04-06T00:35:43.231Z,41.78
2023-04-06T00:38:12.316Z,42.04
2023-04-06T00:40:41.283Z,41.27
2023-04-06T00:43:12.997Z,41.42
2023-04-06T00:45:42.869Z,40.88
2023-04-06T00:48:11.733Z,40.93
2023-04-06T00:50:40.492Z,41.06
2023-04-06T00:53:09.293Z,40.61
2023-04-06T00:55:38.116Z,40.89
2023-04-06T00:58:07.309Z,40.90
2023-04-06T01:00:46.638Z,40.39
2023-04-06T01:03:19.843Z,40.67
2023-04-06T01:05:49.436Z,39.46
2023-04-06T01:08:27.111Z,38.62
2023-04-06T01:11:07.004Z,38.14
2023-04-06T01:13:35.864Z,37.96
2023-04-06T01:16:07.520Z,37.03
2023-04-06T01:18:58.761Z,36.30
2023-04-06T01:21:31.965Z,35.96
2023-04-06T01:24:32.675Z,36.16
2023-04-06T01:27:20.129Z,36.18
2023-04-06T01:30:24.413Z,34.81
2023-04-06T01:32:58.428Z,35.23
2023-04-06T01:35:38.995Z,35.23
2023-04-06T01:38:15.526Z,35.46
2023-04-06T01:40:46.310Z,35.14
2023-04-06T01:43:15.301Z,35.02
2023-04-06T01:45:58.995Z,34.66
2023-04-06T01:48:33.857Z,34.13
2023-04-06T01:51:08.809Z,33.46
2023-04-06T01:53:45.602Z,33.42
2023-04-06T01:56:14.690Z,31.11
2023-04-06T01:58:49.546Z,31.12
2023-04-06T02:01:20.767Z,30.70
2023-04-06T02:03:56.281Z,31.14
2023-04-06T02:06:26.915Z,29.90
2023-04-06T02:08:56.007Z,30.16
2023-04-06T02:11:25.251Z,28.65
2023-04-06T02:13:58.110Z,29.42
2023-04-06T02:16:52.075Z,29.30
2023-04-06T02:19:46.206Z,28.25
2023-04-06T02:22:15.327Z,27.71
2023-04-06T02:24:44.145Z,27.78
2023-04-06T02:27:13.024Z,28.73
2023-04-06T02:29:42.028Z,29.29
2023-04-06T02:32:11.109Z,28.51
2023-04-06T02:34:40.050Z,28.28
2023-04-06T02:37:08.950Z,27.91
2023-04-06T02:39:38.845Z,25.97
2023-04-06T02:42:10.661Z,25.58
2023-04-06T02:44:39.840Z,25.11
2023-04-06T02:47:10.825Z,24.28
2023-04-06T02:49:41.627Z,24.50
2023-04-06T02:52:11.546Z,23.86
2023-04-06T02:54:40.396Z,24.37
2023-04-06T02:57:10.431Z,24.06
2023-04-06T02:59:43.810Z,24.00
2023-04-06T03:02:19.587Z,24.88
2023-04-06T03:04:49.267Z,25.02
2023-04-06T03:07:27.059Z,23.80
2023-04-06T03:09:56.832Z,24.39
2023-04-06T03:12:25.564Z,24.72
2023-04-06T03:15:12.919Z,24.28
2023-04-06T03:17:46.570Z,23.94
2023-04-06T03:20:31.629Z,24.48
2023-04-06T03:23:00.983Z,23.24
2023-04-06T03:25:33.194Z,23.20
2023-04-06T03:28:06.035Z,23.71
2023-04-06T03:30:39.848Z,23.07
2023-04-06T03:33:08.944Z,22.90
2023-04-06T03:35:45.821Z,22.18
2023-04-06T03:38:15.057Z,22.24
2023-04-06T03:40:44.325Z,21.17
2023-04-06T03:43:13.248Z,21.38
2023-04-06T03:45:42.612Z,20.39
2023-04-06T03:48:11.563Z,20.78
2023-04-06T03:50:41.146Z,20.93
2023-04-06T03:53:10.325Z,20.15
2023-04-06T03:55:39.188Z,18.94
2023-04-06T03:58:08.033Z,20.23
2023-04-06T04:00:37.729Z,20.42
2023-04-06T04:03:06.928Z,19.84
2023-04-06T04:05:35.942Z,20.83
2023-04-06T04:08:05.253Z,20.65
2023-04-06T04:10:34.779Z,21.00
2023-04-06T04:13:03.608Z,20.34
2023-04-06T04:15:32.913Z,20.60
2023-04-06T04:18:01.917Z,20.08
2023-04-06T04:20:30.782Z,19.83
2023-04-06T04:22:59.603Z,20.84
2023-04-06T04:25:29.474Z,21.03
2023-04-06T04:27:59.525Z,19.85
2023-04-06T04:30:28.473Z,20.58
2023-04-06T04:32:57.282Z,20.06
2023-04-06T04:35:26.934Z,19.90
2023-04-06T04:37:56.397Z,20.03
2023-04-06T04:40:25.321Z,20.55
2023-04-06T04:43:05.558Z,21.14
2023-04-06T04:45:36.591Z,20.43
2023-04-06T04:48:17.650Z,20.96
2023-04-06T04:50:54.268Z,21.36
2023-04-06T04:53:26.570Z,21.47
2023-04-06T04:56:01.638Z,22.26
2023-04-06T04:58:30.466Z,21.83
2023-04-06T05:01:02.606Z,22.00
2023-04-06T05:03:32.682Z,21.83
2023-04-06T05:06:06.779Z,22.02
2023-04-06T05:08:38.816Z,22.00
2023-04-06T05:11:07.897Z,21.60
2023-04-06T05:13:41.144Z,21.81
2023-04-06T05:16:15.753Z,22.02
2023-04-06T05:18:44.953Z,21.89
2023-04-06T05:21:14.981Z,22.30
2023-04-06T05:23:57.198Z,23.31
2023-04-06T05:26:26.873Z,23.21
2023-04-06T05:29:02.142Z,23.06
2023-04-06T05:31:34.759Z,23.14
2023-04-06T05:34:03.735Z,23.62
2023-04-06T05:36:35.925Z,24.18
2023-04-06T05:39:10.594Z,24.64
2023-04-06T05:41:46.854Z,24.30
2023-04-06T05:44:17.557Z,23.56
2023-04-06T05:46:51.411Z,23.40
2023-04-06T05:49:20.526Z,23.74
2023-04-06T05:51:49.401Z,24.35
2023-04-06T05:54:18.310Z,23.70
2023-04-06T05:56:47.611Z,23.30
2023-04-06T05:59:18.484Z,23.89
2023-04-06T06:01:49.520Z,23.53
2023-04-06T06:04:19.847Z,24.17
2023-04-06T06:06:50.426Z,24.26
2023-04-06T06:09:22.782Z,24.47
2023-04-06T06:12:02.241Z,23.81
2023-04-06T06:14:32.288Z,23.32
2023-04-06T06:17:01.069Z,23.16
2023-04-06T06:19:30.783Z,22.69
2023-04-06T06:22:04.205Z,22.62
2023-04-06T06:24:35.271Z,23.43
2023-04-06T06:27:04.202Z,23.47
2023-04-06T06:29:35.558Z,23.33
2023-04-06T06:32:04.707Z,23.14
2023-04-06T06:34:34.230Z,23.52
2023-04-06T06:37:07.700Z,23.15
2023-04-06T06:39:39.116Z,22.68
2023-04-06T06:42:07.997Z,22.53
2023-04-06T06:44:50.747Z,22.83
2023-04-06T06:47:19.795Z,22.47
2023-04-06T06:49:48.690Z,22.17
2023-04-06T06:52:17.735Z,22.73
2023-04-06T06:54:46.610Z,22.67
2023-04-06T06:57:15.372Z,22.71
2023-04-06T06:59:44.458Z,22.24
2023-04-06T07:02:14.354Z,21.73
2023-04-06T07:04:43.844Z,22.20
2023-04-06T07:07:12.998Z,22.46
2023-04-06T07:09:42.000Z,21.91
2023-04-06T07:12:10.932Z,22.19
2023-04-06T07:14:39.661Z,21.70
2023-04-06T07:17:08.751Z,21.66
2023-04-06T07:19:38.258Z,22.10
2023-04-06T07:22:07.845Z,22.18
2023-04-06T07:24:36.710Z,22.13
2023-04-06T07:27:05.541Z,22.03
2023-04-06T07:29:34.637Z,21.37
2023-04-06T07:32:03.951Z,21.37
2023-04-06T07:34:37.846Z,22.19
2023-04-06T07:37:07.401Z,22.28
2023-04-06T07:39:37.073Z,22.46
2023-04-06T07:42:06.932Z,22.23
2023-04-06T07:44:36.395Z,22.23
2023-04-06T07:47:06.108Z,21.74
2023-04-06T07:49:35.372Z,22.21
2023-04-06T07:52:05.650Z,21.99
2023-04-06T07:54:35.745Z,21.80
2023-04-06T07:57:04.698Z,22.25
2023-04-06T07:59:33.975Z,22.47
2023-04-06T08:02:03.322Z,23.03
2023-04-06T08:04:33.157Z,23.48
2023-04-06T08:07:01.946Z,23.71
2023-04-06T08:09:30.845Z,23.39
2023-04-06T08:12:00.391Z,23.30
2023-04-06T08:14:29.398Z,23.60
2023-04-06T08:16:58.497Z,23.48
2023-04-06T08:19:27.248Z,23.06
2023-04-06T08:21:56.232Z,23.54
2023-04-06T08:24:25.045Z,24.06
2023-04-06T08:26:54.629Z,24.49
2023-04-06T08:29:23.491Z,25.40
2023-04-06T08:31:52.286Z,25.45
2023-04-06T08:34:21.373Z,26.64
2023-04-06T08:36:50.252Z,26.36
2023-04-06T08:39:19.115Z,26.84
2023-04-06T08:41:49.520Z,27.22
2023-04-06T08:44:18.756Z,26.96
2023-04-06T08:46:48.038Z,27.74
2023-04-06T08:49:18.213Z,27.95
2023-04-06T08:51:47.990Z,28.23
2023-04-06T08:54:17.058Z,28.20
2023-04-06T08:56:46.581Z,28.58
2023-04-06T08:59:16.021Z,28.80
2023-04-06T09:01:47.742Z,29.05
2023-04-06T09:04:17.330Z,29.65
2023-04-06T09:06:46.759Z,29.27
2023-04-06T09:09:16.075Z,29.84
2023-04-06T09:11:53.488Z,29.55
2023-04-06T09:14:39.357Z,29.75
2023-04-06T09:17:08.235Z,30.05
2023-04-06T09:19:48.096Z,30.19
2023-04-06T09:22:17.233Z,30.56
2023-04-06T09:24:52.113Z,30.47
2023-04-06T09:27:32.982Z,30.47
2023-04-06T09:30:15.756Z,30.68
2023-04-06T09:32:53.521Z,30.77
2023-04-06T09:35:23.660Z,31.28
2023-04-06T09:37:53.427Z,31.05
2023-04-06T09:40:23.793Z,31.25
2023-04-06T09:42:58.907Z,31.49
2023-04-06T09:45:32.247Z,31.29
2023-04-06T09:48:02.402Z,31.37
2023-04-06T09:50:32.237Z,31.33
2023-04-06T09:53:03.124Z,31.60
2023-04-06T09:55:45.271Z,32.06
2023-04-06T09:58:27.791Z,32.13
2023-04-06T10:01:07.725Z,32.53
2023-04-06T10:03:52.284Z,32.10
2023-04-06T10:06:27.015Z,31.94
2023-04-06T10:08:58.020Z,32.52
2023-04-06T10:11:27.707Z,32.79
2023-04-06T10:13:57.255Z,32.61
2023-04-06T10:16:27.715Z,32.14
2023-04-06T10:19:03.071Z,32.53
2023-04-06T10:21:35.227Z,32.61
2023-04-06T10:24:08.838Z,32.49
2023-04-06T10:26:38.156Z,32.70
2023-04-06T10:29:07.429Z,33.37
2023-04-06T10:31:44.711Z,33.49
2023-04-06T10:34:14.066Z,33.67
2023-04-06T10:36:42.833Z,33.27
2023-04-06T10:39:11.657Z,33.73
2023-04-06T10:41:49.730Z,33.78
2023-04-06T10:44:27.764Z,33.72
2023-04-06T10:47:02.112Z,33.87
2023-04-06T10:49:30.967Z,33.96
2023-04-06T10:52:00.205Z,34.42
2023-04-06T10:54:30.084Z,34.51
2023-04-06T10:56:58.955Z,34.36
2023-04-06T10:59:30.712Z,34.47
2023-04-06T11:02:00.704Z,34.77
2023-04-06T11:04:29.794Z,34.55
2023-04-06T11:06:59.637Z,34.20
2023-04-06T11:09:36.801Z,33.99
2023-04-06T11:12:06.354Z,34.58
2023-04-06T11:14:35.096Z,34.66
2023-04-06T11:17:05.118Z,34.63
2023-04-06T11:19:35.032Z,34.75
2023-04-06T11:22:09.878Z,34.92
2023-04-06T11:24:38.761Z,35.02
2023-04-06T11:27:08.119Z,34.57
2023-04-06T11:29:39.594Z,34.46
2023-04-06T11:32:12.085Z,34.96
2023-04-06T11:34:42.484Z,34.60
2023-04-06T11:37:13.163Z,35.12
2023-04-06T11:39:48.563Z,34.82
2023-04-06T11:42:24.567Z,35.02
2023-04-06T11:44:56.702Z,35.44
2023-04-06T11:47:34.854Z,34.99
2023-04-06T11:50:11.356Z,35.50
2023-04-06T11:52:41.920Z,35.51
2023-04-06T11:55:20.827Z,35.32
2023-04-06T11:57:50.890Z,35.51
2023-04-06T12:00:22.308Z,35.44
2023-04-06T12:02:51.668Z,35.65
2023-04-06T12:05:20.853Z,35.56
2023-04-06T12:07:49.647Z,35.83
2023-04-06T12:10:18.404Z,36.21
2023-04-06T12:12:47.618Z,36.34
2023-04-06T12:15:16.702Z,36.14
2023-04-06T12:17:45.567Z,36.48
2023-04-06T12:20:25.715Z,36.16
2023-04-06T12:22:56.279Z,36.11
2023-04-06T12:25:25.182Z,35.84
2023-04-06T12:27:54.142Z,36.52
2023-04-06T12:30:23.222Z,36.37
2023-04-06T12:32:52.722Z,36.52
2023-04-06T12:35:22.514Z,36.18
2023-04-06T12:37:51.497Z,36.24
2023-04-06T12:40:20.753Z,36.77
2023-04-06T12:42:49.745Z,37.39
2023-04-06T12:45:19.216Z,37.08
2023-04-06T12:47:48.075Z,36.85
2023-04-06T12:50:16.936Z,36.96
2023-04-06T12:52:45.919Z,37.62
2023-04-06T12:55:15.505Z,37.26
2023-04-06T12:57:44.679Z,36.50
2023-04-06T13:00:14.615Z,37.40
2023-04-06T13:02:48.444Z,36.67
2023-04-06T13:05:20.364Z,36.86
2023-04-06T13:07:49.188Z,37.13
2023-04-06T13:10:18.092Z,37.61
2023-04-06T13:12:47.240Z,37.31
2023-04-06T13:15:16.712Z,37.21
2023-04-06T13:17:45.868Z,37.52
2023-04-06T13:20:14.623Z,37.27
2023-04-06T13:22:43.410Z,37.26
2023-04-06T13:25:12.215Z,37.01
2023-04-06T13:27:41.194Z,37.33
2023-04-06T13:30:10.948Z,37.13
2023-04-06T13:32:39.718Z,37.06
2023-04-06T13:35:09.178Z,36.72
2023-04-06T13:37:37.906Z,36.94
2023-04-06T13:40:07.728Z,36.77
2023-04-06T13:42:45.846Z,36.58
2023-04-06T13:45:14.863Z,36.39
2023-04-06T13:47:43.751Z,36.39
2023-04-06T13:50:12.845Z,36.46
2023-04-06T13:52:41.686Z,36.80
2023-04-06T13:55:11.022Z,36.60
2023-04-06T13:57:40.969Z,36.67
2023-04-06T14:00:13.569Z,36.60
2023-04-06T14:02:43.492Z,37.00
2023-04-06T14:05:12.644Z,36.94
2023-04-06T14:07:42.326Z,36.78
2023-04-06T14:10:15.590Z,37.49
2023-04-06T14:12:46.212Z,37.32
2023-04-06T14:15:15.245Z,37.12
2023-04-06T14:17:44.161Z,36.99
2023-04-06T14:20:15.714Z,37.17
2023-04-06T14:22:44.582Z,37.07
2023-04-06T14:25:14.150Z,36.97
2023-04-06T14:27:43.822Z,37.07
2023-04-06T14:30:13.241Z,37.04
2023-04-06T14:32:42.464Z,37.07
2023-04-06T14:35:12.256Z,36.59
2023-04-06T14:37:40.985Z,36.72
2023-04-06T14:40:11.227Z,37.32
2023-04-06T14:42:40.277Z,37.19
2023-04-06T14:45:09.464Z,37.36
2023-04-06T14:47:38.321Z,37.11
2023-04-06T14:50:07.802Z,37.00
2023-04-06T14:52:36.604Z,36.90
2023-04-06T14:55:06.095Z,37.17
2023-04-06T14:57:35.433Z,36.71
2023-04-06T15:00:04.931Z,37.42
2023-04-06T15:02:35.097Z,37.04
2023-04-06T15:05:05.065Z,36.70
2023-04-06T15:07:33.908Z,37.03
2023-04-06T15:10:02.741Z,37.07
2023-04-06T15:12:33.849Z,36.86
2023-04-06T15:15:02.651Z,37.34
2023-04-06T15:17:31.858Z,37.45
2023-04-06T15:20:00.770Z,36.88
2023-04-06T15:22:31.262Z,37.02
2023-04-06T15:25:00.147Z,37.13
2023-04-06T15:27:29.041Z,36.84
2023-04-06T15:29:59.962Z,37.03
2023-04-06T15:32:28.905Z,36.82
2023-04-06T15:35:01.563Z,37.00
2023-04-06T15:37:31.683Z,37.39
2023-04-06T15:40:01.904Z,37.10
2023-04-06T15:42:32.096Z,37.09
2023-04-06T15:45:00.846Z,37.07
2023-04-06T15:47:31.742Z,36.88
2023-04-06T15:50:00.624Z,37.12
2023-04-06T15:52:29.623Z,37.06
2023-04-06T15:54:58.905Z,37.33
2023-04-06T15:57:27.974Z,37.31
2023-04-06T15:59:56.885Z,36.84
2023-04-06T16:02:27.460Z,36.78
2023-04-06T16:04:57.718Z,37.47
2023-04-06T16:07:32.229Z,37.03
2023-04-06T16:10:05.432Z,37.28
2023-04-06T16:12:34.613Z,37.08
2023-04-06T16:15:03.459Z,37.32
2023-04-06T16:17:32.296Z,37.43
2023-04-06T16:20:01.119Z,37.75
2023-04-06T16:22:30.110Z,37.33
2023-04-06T16:24:58.949Z,37.78
2023-04-06T16:27:28.431Z,38.14
2023-04-06T16:29:57.192Z,38.00
2023-04-06T16:32:26.106Z,37.61
2023-04-06T16:34:55.081Z,37.50
2023-04-06T16:37:23.986Z,37.54
2023-04-06T16:39:53.281Z,37.67
2023-04-06T16:42:22.303Z,37.34
2023-04-06T16:44:51.100Z,37.48
2023-04-06T16:47:19.876Z,37.53
2023-04-06T16:49:48.680Z,37.34
2023-04-06T16:52:17.437Z,37.23
2023-04-06T16:54:46.434Z,37.21
2023-04-06T16:57:15.823Z,36.80
2023-04-06T16:59:44.640Z,37.05
2023-04-06T17:02:14.639Z,36.60
2023-04-06T17:04:43.817Z,37.35
2023-04-06T17:07:12.783Z,36.91
2023-04-06T17:09:42.323Z,36.54
2023-04-06T17:12:11.232Z,36.77
2023-04-06T17:14:40.246Z,36.23
2023-04-06T17:17:09.426Z,36.47
2023-04-06T17:19:38.399Z,36.55
2023-04-06T17:22:07.336Z,36.55
2023-04-06T17:24:36.062Z,36.62
2023-04-06T17:27:05.039Z,36.50
2023-04-06T17:29:36.856Z,36.20
2023-04-06T17:32:06.586Z,36.11
2023-04-06T17:34:35.681Z,36.16
2023-04-06T17:37:04.562Z,36.08
2023-04-06T17:39:33.409Z,35.91
2023-04-06T17:42:05.388Z,36.13
2023-04-06T17:44:34.625Z,35.90
2023-04-06T17:47:03.397Z,35.65
2023-04-06T17:49:32.238Z,35.81
2023-04-06T17:52:01.118Z,35.67
2023-04-06T17:54:29.824Z,35.53
2023-04-06T17:56:59.077Z,35.78
2023-04-06T17:59:28.186Z,35.49
2023-04-06T18:01:57.964Z,35.16
2023-04-06T18:04:27.298Z,35.10
2023-04-06T18:06:56.550Z,35.30
2023-04-06T18:11:59.226Z,35.32
2023-04-06T18:14:27.972Z,34.74
2023-04-06T18:16:57.213Z,35.21
2023-04-06T18:19:27.690Z,35.06
2023-04-06T18:21:56.564Z,34.63
2023-04-06T18:24:40.453Z,34.93
2023-04-06T18:27:11.521Z,34.29
2023-04-06T18:29:41.215Z,35.03
2023-04-06T18:32:10.139Z,34.94
2023-04-06T18:34:39.999Z,34.71
2023-04-06T18:37:08.871Z,34.31
2023-04-06T18:39:37.763Z,35.07
2023-04-06T18:42:06.591Z,34.72
2023-04-06T18:44:35.371Z,34.33
2023-04-06T18:47:04.295Z,34.48
2023-04-06T18:49:33.968Z,34.38
2023-04-06T18:52:03.753Z,34.39
2023-04-06T18:54:32.556Z,34.40
2023-04-06T18:57:02.332Z,34.59
2023-04-06T18:59:31.210Z,34.19
2023-04-06T19:02:00.620Z,34.09
2023-04-06T19:04:31.196Z,34.37
2023-04-06T19:07:01.294Z,34.20
2023-04-06T19:09:30.049Z,33.99
2023-04-06T19:11:58.895Z,34.36
2023-04-06T19:14:32.401Z,34.44
2023-04-06T19:17:01.287Z,34.34
2023-04-06T19:19:30.240Z,33.98
2023-04-06T19:22:02.042Z,34.08
2023-04-06T19:24:30.814Z,33.86
2023-04-06T19:26:59.927Z,33.96
2023-04-06T19:29:28.718Z,34.17
2023-04-06T19:31:57.448Z,34.09
2023-04-06T19:34:26.517Z,33.92
2023-04-06T19:36:55.821Z,34.29
2023-04-06T19:39:24.649Z,34.33
2023-04-06T19:41:53.538Z,33.92
2023-04-06T19:44:22.359Z,34.11
2023-04-06T19:46:51.275Z,34.13
2023-04-06T19:49:20.286Z,34.01
2023-04-06T19:51:49.037Z,33.82
2023-04-06T19:54:17.776Z,33.75
2023-04-06T19:56:48.513Z,33.70
2023-04-06T19:59:18.569Z,33.76
2023-04-06T20:01:48.038Z,33.75
2023-04-06T20:04:17.731Z,33.42
2023-04-06T20:06:46.971Z,33.91
2023-04-06T20:09:17.510Z,33.55
2023-04-06T20:11:46.420Z,33.42
2023-04-06T20:14:16.098Z,33.47
2023-04-06T20:16:44.906Z,33.08
2023-04-06T20:19:13.657Z,33.78
2023-04-06T20:21:44.385Z,33.48
2023-04-06T20:24:13.378Z,33.52
2023-04-06T20:26:42.448Z,33.50
2023-04-06T20:29:11.360Z,32.81
2023-04-06T20:31:40.239Z,33.28
2023-04-06T20:34:08.989Z,33.38
2023-04-06T20:36:37.836Z,32.82
2023-04-06T20:39:07.623Z,32.70
2023-04-06T20:41:36.557Z,32.83
2023-04-06T20:44:05.384Z,33.05
2023-04-06T20:46:34.082Z,32.74
2023-04-06T20:49:04.274Z,32.70
2023-04-06T20:51:33.389Z,32.40
2023-04-06T20:54:02.353Z,32.47
2023-04-06T20:56:31.391Z,32.38
2023-04-06T20:59:01.127Z,32.38
2023-04-06T21:01:31.456Z,32.42
2023-04-06T21:04:02.584Z,32.37
2023-04-06T21:06:33.036Z,32.41
2023-04-06T21:09:02.305Z,32.61
2023-04-06T21:11:42.871Z,32.38
2023-04-06T21:14:11.657Z,32.27
2023-04-06T21:16:40.474Z,32.56
2023-04-06T21:19:09.341Z,32.31
2023-04-06T21:21:38.102Z,32.36
2023-04-06T21:24:07.147Z,32.01
2023-04-06T21:26:37.362Z,32.44
2023-04-06T21:29:06.310Z,32.18
2023-04-06T21:31:42.347Z,32.35
2023-04-06T21:34:15.355Z,32.52
2023-04-06T21:36:44.335Z,32.36
2023-04-06T21:39:13.225Z,32.68
2023-04-06T21:41:42.160Z,32.17
2023-04-06T21:44:10.938Z,32.18
2023-04-06T21:46:39.797Z,32.46
2023-04-06T21:49:08.620Z,32.22
2023-04-06T21:51:37.594Z,32.69
2023-04-06T21:54:06.388Z,32.34
2023-04-06T21:56:35.124Z,32.39
2023-04-06T21:59:03.929Z,32.83
2023-04-06T22:01:33.730Z,32.76
2023-04-06T22:04:03.211Z,32.85
2023-04-06T22:06:32.248Z,32.51
2023-04-06T22:09:02.448Z,32.93
2023-04-06T22:11:31.390Z,32.84
2023-04-06T22:14:00.570Z,32.53
2023-04-06T22:16:29.525Z,32.28
2023-04-06T22:18:58.610Z,32.93
2023-04-06T22:21:27.924Z,33.02
2023-04-06T22:23:56.814Z,32.75
2023-04-06T22:26:25.659Z,32.99
2023-04-06T22:28:54.536Z,32.60
2023-04-06T22:31:23.372Z,32.89
2023-04-06T22:33:52.394Z,32.84
2023-04-06T22:36:21.592Z,33.34
2023-04-06T22:38:51.407Z,32.93
2023-04-06T22:41:20.225Z,32.88
2023-04-06T22:43:48.918Z,33.58
2023-04-06T22:46:17.933Z,33.67
2023-04-06T22:48:46.797Z,33.60
2023-04-06T22:51:15.581Z,33.78
2023-04-06T22:53:44.441Z,33.85
2023-04-06T22:56:13.308Z,34.04
2023-04-06T22:58:42.140Z,33.67
2023-04-06T23:01:12.711Z,34.02
2023-04-06T23:03:42.131Z,34.06
2023-04-06T23:06:11.051Z,34.67
2023-04-06T23:08:39.854Z,34.07
2023-04-06T23:11:08.608Z,34.41
2023-04-06T23:13:37.344Z,34.31
2023-04-06T23:16:08.624Z,34.51
2023-04-06T23:18:37.394Z,34.46
2023-04-06T23:21:09.351Z,34.50
2023-04-06T23:23:38.184Z,34.89
2023-04-06T23:26:06.989Z,34.97
2023-04-06T23:28:35.743Z,34.34
2023-04-06T23:31:04.576Z,34.43
2023-04-06T23:33:33.434Z,34.78
2023-04-06T23:36:02.456Z,34.60
2023-04-06T23:38:31.561Z,34.19
2023-04-06T23:41:00.280Z,34.10
2023-04-06T23:43:29.083Z,34.24
2023-04-06T23:45:57.897Z,33.76
2023-04-06T23:48:26.848Z,33.74
2023-04-06T23:50:55.764Z,33.63
2023-04-06T23:53:24.558Z,33.62
2023-04-06T23:55:53.363Z,33.52
2023-04-06T23:58:22.161Z,33.43
